Time;durP1;ratioP1;P1;durP2;ratioP2;P2;SDS_P1;SDS_P2;PMS_P1;PMS_P2;Temp;Humidity;BMP_temperature;BMP_pressure;BME280_temperature;BME280_humidity;BME280_pressure;Samples;Min_cycle;Max_cycle;Signal;HPM_P1;HPM_P2
2023/03/08 00:01:18;;;;;;;;;;;0.40;99.90;;;;;;4970652;28;19927;-69
2023/03/08 00:03:44;;;;;;;;;;;0.40;99.90;;;;;;4973434;28;19932;-69
2023/03/08 00:06:11;;;;;;;;;;;0.40;99.90;;;;;;4975861;28;19922;-69
2023/03/08 00:08:37;;;;;;;;;;;0.40;99.90;;;;;;4965535;28;19925;-69
2023/03/08 00:11:09;;;;;;;;;;;0.40;99.90;;;;;;4971557;28;20145;-69
2023/03/08 00:13:35;;;;;;;;;;;0.40;99.90;;;;;;4962890;28;19940;-69
2023/03/08 00:16:02;;;;;;;;;;;0.40;99.90;;;;;;4971381;28;19918;-70
2023/03/08 00:18:28;;;;;;;;;;;0.40;99.90;;;;;;4977826;28;19930;-70
2023/03/08 00:21:00;;;;;;;;;;;0.50;99.90;;;;;;4979765;28;20393;-69
2023/03/08 00:23:26;;;;;;;;;;;0.50;99.90;;;;;;4976196;28;19948;-69
2023/03/08 00:25:52;;;;;;;;;;;0.50;99.90;;;;;;4979582;28;19922;-69
2023/03/08 00:28:20;;;;;;;;;;;0.50;99.90;;;;;;4975875;28;20348;-69
2023/03/08 00:30:53;;;;;;;;;;;0.50;99.90;;;;;;4966643;28;19933;-69
2023/03/08 00:33:18;;;;;;;;;;;0.60;99.90;;;;;;4972171;28;20043;-69
2023/03/08 00:35:52;;;;;;;;;;;0.60;99.90;;;;;;4971438;28;19925;-70
2023/03/08 00:38:18;;;;;;;;;;;0.60;99.90;;;;;;4976392;28;20465;-69
2023/03/08 00:40:43;;;;;;;;;;;0.70;99.90;;;;;;4972541;28;20005;-70
2023/03/08 00:43:09;;;;;;;;;;;0.70;99.90;;;;;;4972869;28;19922;-69
2023/03/08 00:45:34;;;;;;;;;;;0.70;99.90;;;;;;4970078;28;20033;-70
2023/03/08 00:48:00;;;;;;;;;;;0.70;99.90;;;;;;4992340;28;19925;-70
2023/03/08 00:50:25;;;;;;;;;;;0.70;99.90;;;;;;4980614;28;19989;-69
2023/03/08 00:52:51;;;;;;;;;;;0.70;99.90;;;;;;4972479;28;19991;-69
2023/03/08 00:55:16;;;;;;;;;;;0.70;99.90;;;;;;4977329;28;20055;-69
2023/03/08 00:57:42;;;;;;;;;;;0.60;99.90;;;;;;4974546;28;19988;-69
2023/03/08 01:00:11;;;;;;;;;;;0.60;99.90;;;;;;4979065;28;20329;-69
2023/03/08 01:02:39;;;;;;;;;;;0.60;99.90;;;;;;4992038;28;20944;-70
2023/03/08 01:05:06;;;;;;;;;;;0.60;99.90;;;;;;4982573;28;19921;-69
2023/03/08 01:07:31;;;;;;;;;;;0.60;99.90;;;;;;4981419;28;20452;-69
2023/03/08 01:09:57;;;;;;;;;;;0.60;99.90;;;;;;4989284;28;19925;-70
2023/03/08 01:12:24;;;;;;;;;;;0.50;99.90;;;;;;4981941;28;19923;-70
2023/03/08 01:14:50;;;;;;;;;;;0.50;99.90;;;;;;4978395;28;19928;-70
2023/03/08 01:17:16;;;;;;;;;;;0.50;99.90;;;;;;4975870;28;20163;-69
2023/03/08 01:19:41;;;;;;;;;;;0.50;99.90;;;;;;4962276;28;20437;-69
2023/03/08 01:22:09;;;;;;;;;;;0.40;99.90;;;;;;4993278;28;20290;-69
2023/03/08 01:24:35;;;;;;;;;;;0.40;99.90;;;;;;4981080;28;19928;-69
2023/03/08 01:27:00;;;;;;;;;;;0.40;99.90;;;;;;4978523;28;19918;-69
2023/03/08 01:29:26;;;;;;;;;;;0.30;99.90;;;;;;4983679;28;19917;-69
2023/03/08 01:31:52;;;;;;;;;;;0.30;99.90;;;;;;4981301;28;19945;-70
2023/03/08 01:34:18;;;;;;;;;;;0.30;99.90;;;;;;4982138;28;20317;-70
2023/03/08 01:36:43;;;;;;;;;;;0.30;99.90;;;;;;4974201;28;20525;-69
2023/03/08 01:39:09;;;;;;;;;;;0.30;99.90;;;;;;4991722;28;19937;-70
2023/03/08 01:41:34;;;;;;;;;;;0.30;99.90;;;;;;4974735;28;19928;-69
2023/03/08 01:44:03;;;;;;;;;;;0.20;99.90;;;;;;4974181;28;19940;-70
2023/03/08 01:46:35;;;;;;;;;;;0.30;99.90;;;;;;4990274;28;19925;-70
2023/03/08 01:49:00;;;;;;;;;;;0.30;99.90;;;;;;5089533;23;19975;-66
2023/03/08 01:51:29;;;;;;;;;;;0.20;99.90;;;;;;5047751;28;20334;-66
2023/03/08 01:53:56;;;;;;;;;;;0.30;99.90;;;;;;5049826;28;19960;-66
2023/03/08 01:56:22;;;;;;;;;;;0.20;99.90;;;;;;5045704;28;19936;-65
2023/03/08 01:58:49;;;;;;;;;;;0.30;99.90;;;;;;5043082;28;19978;-66
2023/03/08 02:01:15;;;;;;;;;;;0.20;99.90;;;;;;5049854;28;19924;-67
2023/03/08 02:03:40;;;;;;;;;;;0.20;99.90;;;;;;5041594;28;20174;-66
2023/03/08 02:06:07;;;;;;;;;;;0.30;99.90;;;;;;5047388;28;19959;-65
2023/03/08 02:08:32;;;;;;;;;;;0.30;99.90;;;;;;5044004;28;19917;-65
2023/03/08 02:10:58;;;;;;;;;;;0.30;99.90;;;;;;5039345;28;20290;-65
2023/03/08 02:13:24;;;;;;;;;;;0.30;99.90;;;;;;5025342;28;20012;-65
2023/03/08 02:15:51;;;;;;;;;;;0.40;99.90;;;;;;5042969;28;20128;-66
2023/03/08 02:18:16;;;;;;;;;;;0.30;99.90;;;;;;5045241;28;19971;-65
2023/03/08 02:20:44;;;;;;;;;;;0.40;99.90;;;;;;5040074;28;20379;-66
2023/03/08 02:23:14;;;;;;;;;;;0.50;99.90;;;;;;5048306;28;19951;-66
2023/03/08 02:25:48;;;;;;;;;;;0.40;99.90;;;;;;5037571;28;19924;-66
2023/03/08 02:28:14;;;;;;;;;;;0.40;99.90;;;;;;5037034;28;20427;-66
2023/03/08 02:30:39;;;;;;;;;;;0.40;99.90;;;;;;5050970;28;20027;-67
2023/03/08 02:33:05;;;;;;;;;;;0.40;99.90;;;;;;5048758;28;20326;-66
2023/03/08 02:35:31;;;;;;;;;;;0.40;99.90;;;;;;5041517;28;19916;-66
2023/03/08 02:37:56;;;;;;;;;;;0.30;99.90;;;;;;5042818;28;19928;-67
2023/03/08 02:40:22;;;;;;;;;;;0.30;99.90;;;;;;5039432;28;19916;-66
2023/03/08 02:42:47;;;;;;;;;;;0.20;99.90;;;;;;5041586;28;20300;-66
2023/03/08 02:45:13;;;;;;;;;;;0.20;99.90;;;;;;5043210;28;19924;-66
2023/03/08 02:47:39;;;;;;;;;;;0.20;99.90;;;;;;5046508;28;20443;-66
2023/03/08 02:50:07;;;;;;;;;;;0.20;99.90;;;;;;5049628;28;19917;-66
2023/03/08 02:52:33;;;;;;;;;;;0.10;99.90;;;;;;5042351;28;19991;-66
2023/03/08 02:54:58;;;;;;;;;;;0.10;99.90;;;;;;5049842;28;19924;-66
2023/03/08 02:57:24;;;;;;;;;;;0.10;99.90;;;;;;5044290;28;19925;-66
2023/03/08 02:59:49;;;;;;;;;;;0.10;99.90;;;;;;5035393;28;19920;-66
2023/03/08 03:02:15;;;;;;;;;;;0.10;99.90;;;;;;5040298;28;20011;-66
2023/03/08 03:04:40;;;;;;;;;;;0.10;99.90;;;;;;5068030;28;20020;-67
2023/03/08 03:07:06;;;;;;;;;;;0.00;99.90;;;;;;5043834;28;19927;-66
2023/03/08 03:09:33;;;;;;;;;;;0.00;99.90;;;;;;5044862;28;19923;-66
2023/03/08 03:11:59;;;;;;;;;;;-0.10;99.90;;;;;;5042752;28;20284;-66
2023/03/08 03:14:26;;;;;;;;;;;-0.10;99.90;;;;;;5041211;28;19924;-67
2023/03/08 03:16:51;;;;;;;;;;;-0.10;99.90;;;;;;5044243;28;19963;-66
2023/03/08 03:19:17;;;;;;;;;;;-0.10;99.90;;;;;;5047032;28;19924;-66
2023/03/08 03:21:42;;;;;;;;;;;-0.10;99.90;;;;;;5045583;28;20344;-66
2023/03/08 03:24:08;;;;;;;;;;;-0.20;99.90;;;;;;5046069;28;19948;-66
2023/03/08 03:26:33;;;;;;;;;;;-0.20;99.90;;;;;;5033995;28;19924;-65
2023/03/08 03:28:59;;;;;;;;;;;-0.20;99.90;;;;;;5039255;28;20398;-68
2023/03/08 03:31:25;;;;;;;;;;;-0.20;99.90;;;;;;5040396;28;19936;-65
2023/03/08 03:33:51;;;;;;;;;;;-0.20;99.90;;;;;;5039935;28;19917;-67
2023/03/08 03:36:18;;;;;;;;;;;-0.20;99.90;;;;;;5042321;28;20333;-67
2023/03/08 03:38:44;;;;;;;;;;;-0.30;99.90;;;;;;5040079;28;19927;-66
2023/03/08 03:41:11;;;;;;;;;;;-0.30;99.90;;;;;;5039558;28;19916;-66
2023/03/08 03:43:37;;;;;;;;;;;-0.30;99.90;;;;;;5043386;28;19920;-67
2023/03/08 03:46:04;;;;;;;;;;;-0.30;99.90;;;;;;5041810;28;19970;-66
2023/03/08 03:48:30;;;;;;;;;;;-0.30;99.90;;;;;;5033423;28;19917;-67
2023/03/08 03:51:00;;;;;;;;;;;-0.30;99.90;;;;;;5056151;28;19979;-67
2023/03/08 03:53:29;;;;;;;;;;;-0.30;99.90;;;;;;5039641;28;20021;-67
2023/03/08 03:56:01;;;;;;;;;;;-0.40;99.90;;;;;;5042902;28;20052;-68
2023/03/08 03:58:26;;;;;;;;;;;-0.40;99.90;;;;;;5042229;28;19972;-68
2023/03/08 04:00:52;;;;;;;;;;;-0.40;99.90;;;;;;5036867;28;20362;-66
2023/03/08 04:03:17;;;;;;;;;;;-0.40;99.90;;;;;;5042441;28;19924;-66
2023/03/08 04:05:43;;;;;;;;;;;-0.40;99.90;;;;;;5051004;28;20334;-66
2023/03/08 04:08:08;;;;;;;;;;;-0.40;99.90;;;;;;5029090;28;19970;-67
2023/03/08 04:10:34;;;;;;;;;;;-0.40;99.90;;;;;;5029098;28;19924;-66
2023/03/08 04:13:00;;;;;;;;;;;-0.40;99.90;;;;;;5043739;28;19916;-66
2023/03/08 04:15:26;;;;;;;;;;;-0.40;99.90;;;;;;5045553;28;20174;-66
2023/03/08 04:17:52;;;;;;;;;;;-0.50;99.90;;;;;;5055734;28;20287;-68
2023/03/08 04:20:18;;;;;;;;;;;-0.40;99.90;;;;;;5034695;28;19948;-67
2023/03/08 04:22:44;;;;;;;;;;;-0.40;99.90;;;;;;5044274;28;20316;-66
2023/03/08 04:25:09;;;;;;;;;;;-0.40;99.90;;;;;;5039037;28;19924;-70
2023/03/08 04:27:35;;;;;;;;;;;-0.40;99.90;;;;;;5042010;28;19924;-67
2023/03/08 04:30:00;;;;;;;;;;;-0.40;99.90;;;;;;5038198;28;19924;-66
2023/03/08 04:32:26;;;;;;;;;;;-0.40;99.90;;;;;;5043533;28;19916;-66
2023/03/08 04:34:51;;;;;;;;;;;-0.40;99.90;;;;;;5040120;28;20167;-66
2023/03/08 04:37:17;;;;;;;;;;;-0.40;99.90;;;;;;5033107;28;20023;-67
2023/03/08 04:39:42;;;;;;;;;;;-0.40;99.90;;;;;;5042149;28;19931;-66
2023/03/08 04:42:08;;;;;;;;;;;-0.30;99.90;;;;;;5041021;28;20420;-66
2023/03/08 04:44:33;;;;;;;;;;;-0.30;99.90;;;;;;5036674;28;20438;-66
2023/03/08 04:46:59;;;;;;;;;;;-0.30;99.90;;;;;;5040916;28;19964;-67
2023/03/08 04:49:25;;;;;;;;;;;-0.30;99.90;;;;;;5039839;28;20380;-66
2023/03/08 04:51:50;;;;;;;;;;;-0.30;99.90;;;;;;5050845;28;19924;-66
2023/03/08 04:54:16;;;;;;;;;;;-0.30;99.90;;;;;;5038163;28;19917;-66
2023/03/08 04:56:43;;;;;;;;;;;-0.30;99.90;;;;;;5046318;28;19921;-66
2023/03/08 04:59:09;;;;;;;;;;;-0.30;99.90;;;;;;5041008;28;20291;-67
2023/03/08 05:01:34;;;;;;;;;;;-0.30;99.90;;;;;;5040433;28;19939;-66
2023/03/08 05:04:00;;;;;;;;;;;-0.30;99.90;;;;;;5031465;28;19917;-67
2023/03/08 05:06:26;;;;;;;;;;;-0.30;99.90;;;;;;5043258;28;19963;-67
2023/03/08 05:08:52;;;;;;;;;;;-0.30;99.90;;;;;;5038480;28;19967;-67
2023/03/08 05:11:20;;;;;;;;;;;-0.30;99.90;;;;;;5041202;28;19953;-66
2023/03/08 05:13:45;;;;;;;;;;;-0.30;99.90;;;;;;5021246;28;20054;-67
2023/03/08 05:16:11;;;;;;;;;;;-0.40;99.90;;;;;;5040460;28;20398;-67
2023/03/08 05:18:36;;;;;;;;;;;-0.30;99.90;;;;;;5042871;28;20505;-66
2023/03/08 05:21:03;;;;;;;;;;;-0.40;99.90;;;;;;5038705;28;19917;-66
2023/03/08 05:23:29;;;;;;;;;;;-0.30;99.90;;;;;;5029416;28;19923;-66
2023/03/08 05:25:56;;;;;;;;;;;-0.40;99.90;;;;;;5039396;28;19916;-66
2023/03/08 05:28:22;;;;;;;;;;;-0.40;99.90;;;;;;5036812;28;19916;-67
2023/03/08 05:30:48;;;;;;;;;;;-0.40;99.90;;;;;;5039350;28;19928;-67
2023/03/08 05:33:15;;;;;;;;;;;-0.40;99.90;;;;;;5020180;28;19924;-66
2023/03/08 05:35:41;;;;;;;;;;;-0.40;99.90;;;;;;5042113;28;19927;-66
2023/03/08 05:38:06;;;;;;;;;;;-0.40;99.90;;;;;;5031963;28;19917;-67
2023/03/08 05:40:32;;;;;;;;;;;-0.40;99.90;;;;;;5043062;28;20541;-68
2023/03/08 05:42:58;;;;;;;;;;;-0.40;99.90;;;;;;5036911;28;20386;-70
2023/03/08 05:45:23;;;;;;;;;;;-0.40;99.90;;;;;;5042474;28;19932;-67
2023/03/08 05:47:49;;;;;;;;;;;-0.40;99.90;;;;;;5025743;28;20346;-67
2023/03/08 05:50:15;;;;;;;;;;;-0.50;99.90;;;;;;5045494;28;20004;-67
2023/03/08 05:52:41;;;;;;;;;;;-0.50;99.90;;;;;;5044710;28;19916;-66
2023/03/08 05:55:07;;;;;;;;;;;-0.40;99.90;;;;;;5041380;28;19925;-68
2023/03/08 05:57:32;;;;;;;;;;;-0.50;99.90;;;;;;5036480;28;19923;-66
2023/03/08 05:59:58;;;;;;;;;;;-0.40;99.90;;;;;;5038148;28;19920;-67
2023/03/08 06:02:24;;;;;;;;;;;-0.40;99.90;;;;;;5046637;28;19921;-66
2023/03/08 06:04:49;;;;;;;;;;;-0.50;99.90;;;;;;5054714;28;20023;-66
2023/03/08 06:07:15;;;;;;;;;;;-0.50;99.90;;;;;;5044882;28;19973;-67
2023/03/08 06:09:40;;;;;;;;;;;-0.50;99.90;;;;;;5045156;28;19916;-67
2023/03/08 06:12:06;;;;;;;;;;;-0.60;99.90;;;;;;5049746;28;19921;-66
2023/03/08 06:14:31;;;;;;;;;;;-0.60;99.90;;;;;;5043579;28;19924;-66
2023/03/08 06:16:57;;;;;;;;;;;-0.70;99.90;;;;;;5055918;28;19927;-67
2023/03/08 06:19:22;;;;;;;;;;;-0.70;99.90;;;;;;5028526;28;19983;-67
2023/03/08 06:21:48;;;;;;;;;;;-0.70;99.90;;;;;;5045551;28;20291;-66
2023/03/08 06:24:13;;;;;;;;;;;-0.70;99.90;;;;;;5042341;28;19917;-66
2023/03/08 06:26:39;;;;;;;;;;;-0.80;99.90;;;;;;5037987;28;19916;-67
2023/03/08 06:29:05;;;;;;;;;;;-0.80;99.90;;;;;;5042621;28;20307;-66
2023/03/08 06:31:33;;;;;;;;;;;-0.80;99.90;;;;;;5041785;28;20025;-67
2023/03/08 06:33:58;;;;;;;;;;;-0.80;99.90;;;;;;5039387;28;19940;-66
2023/03/08 06:36:24;;;;;;;;;;;-0.80;99.90;;;;;;5052923;28;19917;-66
2023/03/08 06:38:50;;;;;;;;;;;-0.80;99.90;;;;;;5043352;28;19932;-66
2023/03/08 06:41:16;;;;;;;;;;;-0.80;99.90;;;;;;5063227;28;20218;-66
2023/03/08 06:43:42;;;;;;;;;;;-0.70;99.90;;;;;;5048032;28;20152;-67
2023/03/08 06:46:10;;;;;;;;;;;-0.70;99.90;;;;;;5038069;28;20023;-67
2023/03/08 06:48:36;;;;;;;;;;;-0.60;99.90;;;;;;5048648;28;19928;-66
2023/03/08 06:51:02;;;;;;;;;;;-0.60;99.90;;;;;;5060702;28;19943;-66
2023/03/08 06:53:27;;;;;;;;;;;-0.50;99.90;;;;;;5060386;28;19927;-67
2023/03/08 06:55:53;;;;;;;;;;;-0.50;99.90;;;;;;5043638;28;20003;-66
2023/03/08 06:58:19;;;;;;;;;;;-0.50;99.90;;;;;;5045191;28;19963;-67
2023/03/08 07:00:44;;;;;;;;;;;-0.40;99.90;;;;;;5043557;28;20370;-66
2023/03/08 07:03:15;;;;;;;;;;;-0.40;99.90;;;;;;5035389;28;20415;-67
2023/03/08 07:05:44;;;;;;;;;;;-0.30;99.90;;;;;;5038391;28;20233;-67
2023/03/08 07:08:09;;;;;;;;;;;-0.20;99.90;;;;;;5039781;28;19916;-67
2023/03/08 07:10:35;;;;;;;;;;;-0.20;99.90;;;;;;5044905;28;19943;-67
2023/03/08 07:13:01;;;;;;;;;;;-0.20;99.90;;;;;;5029085;28;19963;-66
2023/03/08 07:15:26;;;;;;;;;;;-0.10;99.90;;;;;;5037232;28;19931;-67
2023/03/08 07:17:54;;;;;;;;;;;0.00;99.90;;;;;;5043829;28;20280;-66
2023/03/08 07:20:20;;;;;;;;;;;0.00;99.90;;;;;;5027892;28;19924;-66
2023/03/08 07:22:46;;;;;;;;;;;0.00;99.90;;;;;;5042202;28;21484;-67
2023/03/08 07:25:16;;;;;;;;;;;0.10;99.90;;;;;;5046350;28;19916;-66
2023/03/08 07:27:41;;;;;;;;;;;0.10;99.90;;;;;;5046268;28;19921;-67
2023/03/08 07:30:10;;;;;;;;;;;0.10;99.90;;;;;;5041447;28;19921;-66
2023/03/08 07:32:38;;;;;;;;;;;0.20;99.90;;;;;;5046907;28;19917;-66
2023/03/08 07:35:04;;;;;;;;;;;0.30;99.90;;;;;;5048912;28;20295;-67
2023/03/08 07:37:30;;;;;;;;;;;0.30;99.90;;;;;;5050248;28;19970;-67
2023/03/08 07:39:55;;;;;;;;;;;0.30;99.90;;;;;;5033785;28;19944;-66
2023/03/08 07:42:21;;;;;;;;;;;0.40;99.90;;;;;;5043222;28;20372;-66
2023/03/08 07:44:46;;;;;;;;;;;0.40;99.90;;;;;;5041335;28;20386;-67
2023/03/08 07:47:12;;;;;;;;;;;0.50;99.90;;;;;;5042949;28;19930;-67
2023/03/08 07:49:37;;;;;;;;;;;0.50;99.90;;;;;;5030879;22;19925;-70
2023/03/08 07:52:03;;;;;;;;;;;0.60;99.90;;;;;;5002424;28;20311;-70
2023/03/08 07:54:29;;;;;;;;;;;0.60;99.90;;;;;;5002774;28;19917;-70
2023/03/08 07:56:54;;;;;;;;;;;0.70;99.90;;;;;;4981261;28;20333;-70
2023/03/08 07:59:20;;;;;;;;;;;0.70;99.90;;;;;;5000309;28;20396;-69
2023/03/08 08:01:46;;;;;;;;;;;0.80;99.90;;;;;;4984151;28;20371;-70
2023/03/08 08:04:12;;;;;;;;;;;0.80;99.90;;;;;;5003446;28;19924;-69
2023/03/08 08:06:37;;;;;;;;;;;0.90;99.90;;;;;;5002864;28;20286;-70
2023/03/08 08:09:03;;;;;;;;;;;0.90;99.90;;;;;;4984646;28;19921;-70
2023/03/08 08:11:29;;;;;;;;;;;1.00;99.90;;;;;;4999964;28;19918;-70
2023/03/08 08:13:54;;;;;;;;;;;1.00;99.90;;;;;;4997865;28;19917;-70
2023/03/08 08:16:20;;;;;;;;;;;1.00;99.90;;;;;;4979130;28;19924;-70
2023/03/08 08:18:45;;;;;;;;;;;1.10;99.90;;;;;;4976634;28;20004;-70
2023/03/08 08:21:12;;;;;;;;;;;1.10;99.90;;;;;;4977620;28;19918;-70
2023/03/08 08:23:38;;;;;;;;;;;1.10;99.90;;;;;;4999260;28;19921;-70
2023/03/08 08:26:05;;;;;;;;;;;1.20;99.90;;;;;;4985351;28;20309;-70
2023/03/08 08:28:30;;;;;;;;;;;1.20;99.90;;;;;;4996499;28;20311;-70
2023/03/08 08:31:00;;;;;;;;;;;1.30;99.90;;;;;;4978186;28;19929;-70
2023/03/08 08:33:26;;;;;;;;;;;1.40;99.90;;;;;;4979572;28;20020;-69
2023/03/08 08:35:52;;;;;;;;;;;1.40;99.90;;;;;;4984045;28;19943;-70
2023/03/08 08:38:17;;;;;;;;;;;1.50;99.90;;;;;;4980705;28;20338;-70
2023/03/08 08:40:43;;;;;;;;;;;1.60;99.90;;;;;;4978374;28;20441;-70
2023/03/08 08:43:08;;;;;;;;;;;1.60;99.90;;;;;;4983434;28;20292;-71
2023/03/08 08:45:34;;;;;;;;;;;1.60;99.90;;;;;;4967100;28;20421;-72
2023/03/08 08:48:00;;;;;;;;;;;1.70;99.90;;;;;;4957997;28;19917;-70
2023/03/08 08:50:25;;;;;;;;;;;1.80;99.90;;;;;;4987146;28;20118;-72
2023/03/08 08:52:51;;;;;;;;;;;1.80;99.90;;;;;;4977341;28;19917;-71
2023/03/08 08:55:16;;;;;;;;;;;1.80;99.90;;;;;;4979281;28;20017;-71
2023/03/08 08:57:42;;;;;;;;;;;1.90;99.90;;;;;;4962798;28;19940;-70
2023/03/08 09:00:08;;;;;;;;;;;1.90;99.90;;;;;;4978119;28;20161;-72
2023/03/08 09:02:34;;;;;;;;;;;2.00;99.90;;;;;;4998275;28;20463;-71
2023/03/08 09:05:00;;;;;;;;;;;2.10;99.90;;;;;;4998965;28;19918;-71
2023/03/08 09:07:25;;;;;;;;;;;2.10;99.90;;;;;;4996907;28;19978;-71
2023/03/08 09:09:53;;;;;;;;;;;2.20;99.90;;;;;;4991162;28;19968;-71
2023/03/08 09:12:19;;;;;;;;;;;2.20;99.90;;;;;;4994155;28;19925;-71
2023/03/08 09:14:45;;;;;;;;;;;2.30;99.90;;;;;;4990567;28;19922;-71
2023/03/08 09:17:11;;;;;;;;;;;2.30;99.90;;;;;;4994959;28;20451;-70
2023/03/08 09:19:37;;;;;;;;;;;2.40;99.90;;;;;;4993762;28;19929;-70
2023/03/08 09:22:02;;;;;;;;;;;2.50;99.90;;;;;;4987564;28;20109;-71
2023/03/08 09:24:28;;;;;;;;;;;2.50;99.90;;;;;;4996606;28;19956;-71
2023/03/08 09:26:53;;;;;;;;;;;2.50;99.90;;;;;;4978254;28;19960;-72
2023/03/08 09:29:19;;;;;;;;;;;2.60;99.90;;;;;;4975635;28;20102;-72
2023/03/08 09:31:44;;;;;;;;;;;2.60;99.90;;;;;;4987716;28;20008;-71
2023/03/08 09:34:13;;;;;;;;;;;2.70;99.90;;;;;;5002912;28;19921;-72
2023/03/08 09:36:39;;;;;;;;;;;2.80;99.90;;;;;;4996016;28;19984;-71
2023/03/08 09:39:05;;;;;;;;;;;2.90;99.90;;;;;;4996853;28;21286;-71
2023/03/08 09:41:40;;;;;;;;;;;2.90;99.90;;;;;;4971424;28;19917;-72
2023/03/08 09:44:24;;;;;;;;;;;3.00;99.90;;;;;;4976680;28;19926;-71
2023/03/08 09:46:57;;;;;;;;;;;3.10;99.90;;;;;;4993763;28;19995;-71
2023/03/08 09:49:30;;;;;;;;;;;3.20;99.90;;;;;;4974721;28;19925;-71
2023/03/08 09:52:01;;;;;;;;;;;3.30;99.90;;;;;;4977295;28;20030;-70
2023/03/08 09:54:28;;;;;;;;;;;3.40;99.90;;;;;;4997129;28;20707;-71
2023/03/08 09:56:55;;;;;;;;;;;3.50;99.90;;;;;;4976717;28;20146;-70
2023/03/08 09:59:33;;;;;;;;;;;3.60;99.90;;;;;;4977377;28;20307;-70
2023/03/08 10:02:11;;;;;;;;;;;3.70;99.90;;;;;;4980437;28;20681;-71
2023/03/08 10:04:52;;;;;;;;;;;3.80;99.90;;;;;;4995850;28;19931;-70
2023/03/08 10:07:44;;;;;;;;;;;3.90;99.90;;;;;;4994277;28;19925;-74
2023/03/08 10:10:12;;;;;;;;;;;3.90;99.90;;;;;;4975642;28;20392;-70
2023/03/08 10:12:38;;;;;;;;;;;4.10;99.90;;;;;;4990883;28;19925;-71
2023/03/08 10:15:24;;;;;;;;;;;4.20;99.90;;;;;;4981161;28;19960;-70
2023/03/08 10:17:55;;;;;;;;;;;4.30;99.90;;;;;;4967777;28;20380;-70
2023/03/08 10:20:23;;;;;;;;;;;4.40;99.90;;;;;;4988060;28;20256;-70
2023/03/08 10:22:56;;;;;;;;;;;4.50;99.90;;;;;;4996342;28;19921;-69
2023/03/08 10:25:25;;;;;;;;;;;4.60;99.90;;;;;;4998986;28;19928;-70
2023/03/08 10:27:53;;;;;;;;;;;4.60;99.90;;;;;;4975205;28;19921;-71
2023/03/08 10:30:20;;;;;;;;;;;4.70;99.90;;;;;;4992536;28;19925;-70
2023/03/08 10:32:48;;;;;;;;;;;4.80;99.90;;;;;;4978992;28;19921;-70
2023/03/08 10:35:14;;;;;;;;;;;4.90;99.90;;;;;;4998522;28;20397;-71
2023/03/08 10:37:40;;;;;;;;;;;5.00;99.90;;;;;;4977001;28;19997;-71
2023/03/08 10:40:10;;;;;;;;;;;5.00;99.90;;;;;;4978209;28;20312;-71
2023/03/08 10:42:35;;;;;;;;;;;5.20;99.90;;;;;;4996216;28;20385;-71
2023/03/08 10:45:15;;;;;;;;;;;5.30;99.90;;;;;;4981184;28;19917;-70
2023/03/08 10:47:41;;;;;;;;;;;5.40;99.90;;;;;;4961469;28;19917;-70
2023/03/08 10:50:17;;;;;;;;;;;5.60;99.90;;;;;;4995244;28;20243;-70
2023/03/08 10:52:44;;;;;;;;;;;5.70;99.90;;;;;;4977152;28;19947;-70
2023/03/08 10:55:09;;;;;;;;;;;5.70;99.90;;;;;;4981601;28;20011;-70
2023/03/08 10:57:35;;;;;;;;;;;5.70;99.90;;;;;;4994535;28;19921;-70
2023/03/08 11:00:19;;;;;;;;;;;5.80;99.90;;;;;;4974433;28;19932;-70
2023/03/08 11:02:48;;;;;;;;;;;5.80;99.90;;;;;;4975448;28;20406;-70
2023/03/08 11:05:18;;;;;;;;;;;5.80;99.90;;;;;;4980620;28;19985;-70
2023/03/08 11:07:51;;;;;;;;;;;5.80;99.90;;;;;;4995690;28;20298;-70
2023/03/08 11:10:18;;;;;;;;;;;5.70;99.90;;;;;;4996539;28;19991;-70
2023/03/08 11:12:44;;;;;;;;;;;5.70;99.90;;;;;;4995595;28;19932;-70
2023/03/08 11:15:16;;;;;;;;;;;5.70;99.90;;;;;;4975192;28;19921;-70
2023/03/08 11:17:50;;;;;;;;;;;5.70;99.90;;;;;;4989046;28;19991;-71
2023/03/08 11:20:23;;;;;;;;;;;5.70;99.90;;;;;;4972039;28;19941;-70
2023/03/08 11:22:49;;;;;;;;;;;5.70;99.90;;;;;;4974872;28;19922;-71
2023/03/08 11:25:20;;;;;;;;;;;5.70;99.90;;;;;;4996322;28;19928;-71
2023/03/08 11:28:04;;;;;;;;;;;5.70;99.90;;;;;;4973811;28;19921;-70
2023/03/08 11:30:55;;;;;;;;;;;5.70;99.90;;;;;;4974192;28;20028;-70
2023/03/08 11:33:29;;;;;;;;;;;5.70;99.90;;;;;;4991842;28;19925;-71
2023/03/08 11:36:13;;;;;;;;;;;5.70;99.90;;;;;;4998842;28;19971;-75
2023/03/08 11:38:39;;;;;;;;;;;5.70;99.90;;;;;;4977566;28;19956;-70
2023/03/08 11:41:16;;;;;;;;;;;5.70;99.90;;;;;;4979697;28;19921;-70
2023/03/08 11:44:01;;;;;;;;;;;5.70;99.90;;;;;;4988397;28;20319;-71
2023/03/08 11:46:29;;;;;;;;;;;5.70;99.90;;;;;;4990658;28;19983;-70
2023/03/08 11:49:02;;;;;;;;;;;5.70;99.90;;;;;;4992949;28;19921;-69
2023/03/08 11:51:28;;;;;;;;;;;5.70;99.90;;;;;;4984156;28;20350;-70
2023/03/08 11:53:56;;;;;;;;;;;5.80;99.90;;;;;;4987645;28;19944;-70
2023/03/08 11:56:41;;;;;;;;;;;5.80;99.90;;;;;;4977446;28;20444;-70
2023/03/08 11:59:13;;;;;;;;;;;5.80;99.90;;;;;;4965769;28;19936;-69
2023/03/08 12:01:51;;;;;;;;;;;5.90;99.90;;;;;;4990278;28;19925;-71
2023/03/08 12:04:19;;;;;;;;;;;5.90;99.90;;;;;;4978302;28;19984;-70
2023/03/08 12:06:45;;;;;;;;;;;5.90;99.90;;;;;;4997437;28;19921;-70
2023/03/08 12:09:26;;;;;;;;;;;6.00;99.90;;;;;;5000113;28;20232;-71
2023/03/08 12:11:55;;;;;;;;;;;5.90;99.90;;;;;;4995689;28;19921;-70
2023/03/08 12:14:31;;;;;;;;;;;6.00;99.90;;;;;;4959256;28;19957;-70
2023/03/08 12:17:06;;;;;;;;;;;6.00;99.90;;;;;;4979266;28;19917;-70
2023/03/08 12:19:40;;;;;;;;;;;6.00;99.90;;;;;;4994886;28;19925;-69
2023/03/08 12:22:25;;;;;;;;;;;6.10;99.90;;;;;;4996817;28;20484;-70
2023/03/08 12:24:53;;;;;;;;;;;6.10;99.90;;;;;;5000719;28;20350;-70
2023/03/08 12:27:36;;;;;;;;;;;6.10;99.90;;;;;;4977963;28;20408;-71
2023/03/08 12:30:02;;;;;;;;;;;6.10;99.90;;;;;;4961565;28;20012;-70
2023/03/08 12:32:28;;;;;;;;;;;6.10;99.90;;;;;;4979120;28;20388;-70
2023/03/08 12:35:04;;;;;;;;;;;6.10;99.90;;;;;;4978098;28;19918;-70
2023/03/08 12:37:30;;;;;;;;;;;6.10;99.90;;;;;;4974791;28;20163;-70
2023/03/08 12:40:04;;;;;;;;;;;6.20;99.90;;;;;;4996580;28;20374;-70
2023/03/08 12:42:34;;;;;;;;;;;6.20;99.90;;;;;;4981919;28;20016;-70
2023/03/08 12:45:18;;;;;;;;;;;6.20;99.90;;;;;;4973635;28;19945;-70
2023/03/08 12:48:13;;;;;;;;;;;6.20;99.90;;;;;;4975317;28;19944;-70
2023/03/08 12:50:44;;;;;;;;;;;6.20;99.90;;;;;;4975531;28;20345;-72
2023/03/08 12:53:20;;;;;;;;;;;6.20;99.90;;;;;;4994433;28;19917;-70
2023/03/08 12:55:57;;;;;;;;;;;6.20;99.90;;;;;;5001065;28;19925;-70
2023/03/08 12:58:23;;;;;;;;;;;6.30;99.90;;;;;;4975129;28;19920;-70
2023/03/08 13:00:56;;;;;;;;;;;6.30;99.90;;;;;;4995106;28;20503;-71
2023/03/08 13:03:21;;;;;;;;;;;6.30;99.90;;;;;;4988078;28;19917;-69
2023/03/08 13:05:49;;;;;;;;;;;6.30;99.90;;;;;;5000929;28;19994;-69
2023/03/08 13:08:17;;;;;;;;;;;6.30;99.90;;;;;;5004630;28;20035;-69
2023/03/08 13:10:48;;;;;;;;;;;6.30;99.90;;;;;;4996323;28;19921;-69
2023/03/08 13:13:20;;;;;;;;;;;6.30;99.90;;;;;;5001176;28;20519;-69
2023/03/08 13:15:45;;;;;;;;;;;6.30;99.90;;;;;;5000293;28;20308;-69
2023/03/08 13:18:16;;;;;;;;;;;6.20;99.90;;;;;;4986848;28;19917;-69
2023/03/08 13:20:51;;;;;;;;;;;6.20;99.90;;;;;;4983913;28;19925;-69
2023/03/08 13:23:23;;;;;;;;;;;6.10;99.90;;;;;;4991018;28;20336;-69
2023/03/08 13:25:58;;;;;;;;;;;6.10;99.90;;;;;;4985375;28;20073;-69
2023/03/08 13:28:25;;;;;;;;;;;6.10;99.90;;;;;;5004746;28;20143;-69
2023/03/08 13:30:59;;;;;;;;;;;6.00;99.90;;;;;;5000661;28;20153;-69
2023/03/08 13:33:26;;;;;;;;;;;6.00;99.90;;;;;;5003040;28;20455;-69
2023/03/08 13:35:55;;;;;;;;;;;6.00;99.90;;;;;;5006383;28;19929;-69
2023/03/08 13:38:22;;;;;;;;;;;6.00;99.90;;;;;;4987662;28;19924;-69
2023/03/08 13:40:57;;;;;;;;;;;6.00;99.90;;;;;;4975568;28;19922;-69
2023/03/08 13:43:23;;;;;;;;;;;5.90;99.90;;;;;;4976948;28;19928;-69
2023/03/08 13:45:53;;;;;;;;;;;5.90;99.90;;;;;;4981830;28;19991;-69
2023/03/08 13:48:20;;;;;;;;;;;5.90;99.90;;;;;;4976325;28;19922;-69
2023/03/08 13:50:49;;;;;;;;;;;5.90;99.90;;;;;;4995358;28;19921;-69
2023/03/08 13:53:19;;;;;;;;;;;5.90;99.90;;;;;;4992456;28;20212;-69
2023/03/08 13:55:45;;;;;;;;;;;5.90;99.90;;;;;;4994369;28;19917;-69
2023/03/08 13:58:21;;;;;;;;;;;5.90;99.90;;;;;;4995271;28;20211;-69
2023/03/08 14:00:56;;;;;;;;;;;5.90;99.90;;;;;;4997822;28;19971;-69
2023/03/08 14:03:21;;;;;;;;;;;5.90;99.90;;;;;;4994208;28;20361;-69
2023/03/08 14:05:47;;;;;;;;;;;5.90;99.90;;;;;;4974010;28;19924;-69
2023/03/08 14:08:20;;;;;;;;;;;5.90;99.90;;;;;;4978157;28;19928;-69
2023/03/08 14:10:47;;;;;;;;;;;5.90;99.90;;;;;;4995872;28;19918;-69
2023/03/08 14:13:15;;;;;;;;;;;5.80;99.90;;;;;;4982091;28;19921;-69
2023/03/08 14:15:46;;;;;;;;;;;5.80;99.90;;;;;;4978563;28;19937;-69
2023/03/08 14:18:32;;;;;;;;;;;5.70;99.90;;;;;;4997560;28;20397;-70
2023/03/08 14:20:58;;;;;;;;;;;5.80;99.90;;;;;;4996800;28;19932;-69
2023/03/08 14:23:24;;;;;;;;;;;5.80;99.90;;;;;;4994880;28;20262;-69
2023/03/08 14:25:55;;;;;;;;;;;5.80;99.90;;;;;;4978045;28;20130;-69
2023/03/08 14:28:34;;;;;;;;;;;5.80;99.90;;;;;;4995021;28;19933;-69
2023/03/08 14:30:59;;;;;;;;;;;5.70;99.90;;;;;;4976083;28;19925;-69